Somerset, KY

4:59 PM EDT on March 27, 2017 (GMT -0400)
Somerset-Pulaski County-Wilson | | Change Station
Active Advisory: Severe Thunderstorm Watch

Elev 925 ft 37.05 °N, 84.61 °W | Updated 24 minutes ago

Partly Cloudy
Partly Cloudy
72 °F
Feels Like 72 °F
N
7
Wind Variable Wind from South

Today
High -- | Low -- °F
--% Chance of Precip.
Yesterday
High -- | Low -- °F
Precip. -- in
Pressure 29.88 in
Visibility 10.0 miles
Clouds Scattered Clouds 5000 ft
Mostly Cloudy 6000 ft
Dew Point 54 °F
Humidity 53%
Rainfall 0.00 in
Snow Depth Not available.
7:31 AM 7:56 PM
Waning Crescent, 0% visible
METAR KSME 272035Z AUTO 19006KT 10SM SCT050 BKN060 22/12 A2988 RMK AO2 LTG DSNT N
Pressure 29.88 in
Visibility 10.0 miles
Clouds Scattered Clouds 5000 ft
Mostly Cloudy 6000 ft
Dew Point 54 °F
Humidity 53%
Rainfall 0.00 in
Snow Depth Not available.
7:31 AM 7:56 PM
Waning Crescent, 0% visible
METAR KSME 272035Z AUTO 19006KT 10SM SCT050 BKN060 22/12 A2988 RMK AO2 LTG DSNT N

Get Your Daily Forecast Email!

Thanks for signing up!

Be on the lookout for a verification email in your inbox.

You'll start receiving severe weather alerts in your inbox..

×

10-Day Weather Forecast

Almanac

Astronomy

Mar. 27, 2017 Rise Set
Actual Time
Civil Twilight
Nautical Twilight
Astronomical Twilight
Moon
Length of Visible Light
Length of Day
Tomorrow will be .
, % of the Moon is Illuminated

Today's Extremes

State Highs State Lows

Community

WunderPhotos

Upload Photos

1,962,540 photos uploaded!

WunderBlog® & News

Nearby

Air Quality

  Air Quality AQ Index Pollutant
Not available.

Snow Depth

Station Depth Elevation

Earthquake Activity

City Distance Mag. Time & Date
Minimum magnitude displayed is 2.5.

Earthquake Activity

City Distance Mag. Time & Date
Minimum magnitude displayed is 2.5.

Coastal Water Temperatures

Place Temperature

Stations

Nearby Weather Stations

Station Location Temp. Windchill Dew Point Humidity Wind Precip. Elev Updated Type
                   

Watches & Warnings

Severe Thunderstorm Watch
Issued: 3:43 PM CDT Mar. 27, 2017 – National Weather Service

Severe Thunderstorm Watch 91 remains in effect until 1000 PM CDT

KY
. Kentucky counties included are

Adair Allen Anderson
Barren Bourbon Boyle
Breckinridge Bullitt Butler
Casey Clark Clinton
Cumberland Edmonson Fayette
Franklin Garrard Grayson
green Hancock Hardin
Harrison Hart Henry
Jefferson Jessamine LaRue
Lincoln Logan Madison
Marion Meade Mercer
Metcalfe Monroe Nelson
Nicholas Ohio Oldham
Pulaski Rockcastle Russell
Scott Shelby Simpson
Spencer Taylor Trimble
Warren Washington Wayne
Woodford